This is the latest recevied weather packets stored in our database for station/object LRCL. If no packets are shown the sender has not sent any weather packets the latest 1 day(s).
| Time | Temp. | Humidity | Pressure | Rain* | Wind** | Luminosity | Snow |
|---|---|---|---|---|---|---|---|
| 1778086988 | 22.78° C | 41% | 1010 hPa | - | - | - | - |
| 1778082489 | 26.11° C | 26% | 1010 hPa | - | - | - | - |
| 1778080688 | 25° C | 30% | 1010 hPa | - | - | - | - |
| 1778078888 | 27.22° C | 23% | 1010 hPa | - | - | - | - |
| 1778078000 | 27.22° C | 23% | 1010 hPa | - | - | - | - |
| 1778076262 | 27.22° C | 21% | 1010 hPa | - | - | - | - |
| 1778073488 | 27.22° C | 24% | 1011 hPa | - | - | - | - |
| 1778072597 | 27.22° C | 24% | 1011 hPa | - | - | - | - |
| 1778068088 | 27.22° C | 28% | 1012 hPa | - | - | - | - |
| 1778066288 | 27.22° C | 26% | 1012 hPa | - | - | - | - |
| 1778065388 | 27.22° C | 26% | 1012 hPa | - | - | - | - |
| 1778061788 | 25° C | 30% | 1013 hPa | - | - | - | - |
| 1778059988 | 25° C | 32% | 1013 hPa | - | - | - | - |
| 1778059088 | 22.78° C | 38% | 1013 hPa | - | - | - | - |
| 1778056388 | 22.22° C | 41% | 1013 hPa | - | - | - | - |
| 1778051888 | 17.22° C | 49% | 1014 hPa | - | - | - | - |
| 1778050988 | 17.22° C | 49% | 1014 hPa | - | - | - | - |
| 1778050088 | 15° C | 51% | 1014 hPa | - | - | - | - |
| 1778049188 | 15° C | 51% | 1014 hPa | - | - | - | - |
| 1778046489 | 12.22° C | 63% | 1014 hPa | - | - | - | - |
| 1778045596 | 12.22° C | 63% | 1014 hPa | - | - | - | - |
| 1778043802 | 10° C | 71% | 1014 hPa | - | - | - | - |
| 1778042904 | 7.78° C | 76% | 1014 hPa | - | - | - | - |
| 1778041992 | 7.78° C | 76% | 1014 hPa | - | - | - | - |
| 1778041089 | 7.22° C | 81% | 1014 hPa | - | - | - | - |
* Rain since midnight (hover to see other rain measurements)
** Current wind speed in m/s (hover to see current wind gust speed)